Time;durP1;ratioP1;P1;durP2;ratioP2;P2;SDS_P1;SDS_P2;PMS_P1;PMS_P2;Temp;Humidity;BMP_temperature;BMP_pressure;BME280_temperature;BME280_humidity;BME280_pressure;Samples;Min_cycle;Max_cycle;Signal;HPM_P1;HPM_P2
2021/08/30 00:02:19;;;;;;;19.15;6.25;;;;;;;16.48;79.33;102125.47;5071349;28;20028;-40
2021/08/30 00:04:44;;;;;;;11.70;5.03;;;;;;;16.49;79.36;102125.28;5076266;28;20032;-40
2021/08/30 00:07:10;;;;;;;11.38;4.85;;;;;;;16.48;79.55;102134.44;5064365;28;20033;-41
2021/08/30 00:09:35;;;;;;;10.00;5.22;;;;;;;16.52;79.43;102137.66;5075959;28;20032;-40
2021/08/30 00:12:00;;;;;;;11.00;4.75;;;;;;;16.54;79.25;102139.16;5076359;28;20028;-40
2021/08/30 00:14:26;;;;;;;10.45;5.45;;;;;;;16.53;79.02;102133.88;5075924;28;20035;-41
2021/08/30 00:16:51;;;;;;;10.43;5.70;;;;;;;16.50;79.10;102137.00;5076112;28;20119;-41
2021/08/30 00:19:16;;;;;;;9.32;5.63;;;;;;;16.46;79.19;102134.66;5075771;28;20115;-41
2021/08/30 00:21:42;;;;;;;9.57;5.07;;;;;;;16.41;79.45;102134.38;5075901;28;20138;-41
2021/08/30 00:24:07;;;;;;;9.70;4.82;;;;;;;16.45;79.41;102134.84;5076059;28;20119;-40
2021/08/30 00:26:32;;;;;;;10.98;5.40;;;;;;;16.45;79.46;102135.66;5075401;28;20465;-41
2021/08/30 00:28:58;;;;;;;7.15;4.60;;;;;;;16.41;79.45;102134.38;5075790;28;20048;-41
2021/08/30 00:31:26;;;;;;;7.53;4.93;;;;;;;16.43;79.34;102135.03;5075342;28;20037;-40
2021/08/30 00:33:55;;;;;;;7.88;4.53;;;;;;;16.46;79.29;102136.53;5075485;28;20020;-40
2021/08/30 00:36:22;;;;;;;8.98;5.05;;;;;;;16.42;79.12;102133.34;5075394;28;20028;-40
2021/08/30 00:38:48;;;;;;;13.68;5.53;;;;;;;16.38;79.71;102134.75;5075183;28;20032;-40
2021/08/30 00:41:13;;;;;;;10.40;5.43;;;;;;;16.31;79.84;102135.69;5076142;28;20036;-40
2021/08/30 00:43:38;;;;;;;12.02;5.57;;;;;;;16.35;79.70;102135.16;5075203;28;20044;-40
2021/08/30 00:46:04;;;;;;;9.10;5.75;;;;;;;16.31;79.81;102150.13;5074983;28;20035;-40
2021/08/30 00:48:29;;;;;;;9.07;5.10;;;;;;;16.30;79.83;102143.03;5074765;28;20492;-40
2021/08/30 00:50:55;;;;;;;10.25;5.72;;;;;;;16.33;79.92;102147.22;5074938;28;20345;-40
2021/08/30 00:53:21;;;;;;;7.93;4.93;;;;;;;16.35;79.80;102146.00;5056672;28;20032;-40
2021/08/30 00:55:46;;;;;;;7.72;5.18;;;;;;;16.36;79.94;102144.97;5057105;28;20036;-40
2021/08/30 00:58:11;;;;;;;11.02;5.60;;;;;;;16.30;80.43;102151.16;5074852;28;20109;-40
2021/08/30 01:00:37;;;;;;;9.00;5.72;;;;;;;16.26;80.45;102147.13;5074323;28;20036;-41
2021/08/30 01:03:02;;;;;;;10.27;5.57;;;;;;;16.23;80.60;102142.06;5074973;28;20020;-41
2021/08/30 01:05:28;;;;;;;11.45;6.20;;;;;;;16.18;81.07;102147.22;5075180;28;20138;-39
2021/08/30 01:08:08;;;;;;;9.95;6.45;;;;;;;16.21;80.86;102144.97;5056766;28;20056;-40
2021/08/30 01:10:50;;;;;;;11.05;6.20;;;;;;;16.25;80.82;102145.44;5055647;28;20454;-40
2021/08/30 01:13:29;;;;;;;18.17;6.90;;;;;;;16.28;80.82;102142.34;5057362;28;20024;-40
2021/08/30 01:15:55;;;;;;;12.75;7.10;;;;;;;16.26;81.16;102146.28;5074689;28;20025;-40
2021/08/30 01:18:22;;;;;;;12.20;6.85;;;;;;;16.30;81.30;102145.72;5056841;28;20103;-40
2021/08/30 01:21:11;;;;;;;13.80;7.13;;;;;;;16.27;81.49;102154.22;5056708;28;20116;-41
2021/08/30 01:23:38;;;;;;;12.40;7.60;;;;;;;16.22;81.50;102156.69;5074049;28;20266;-39
2021/08/30 01:26:04;;;;;;;14.13;6.97;;;;;;;16.22;81.89;102157.53;5056814;28;20029;-40
2021/08/30 01:29:07;;;;;;;17.65;8.65;;;;;;;16.25;82.08;102150.88;5054867;28;20036;-40
2021/08/30 01:31:54;;;;;;;17.25;8.70;;;;;;;16.23;82.35;102152.94;5064262;28;20071;-41
2021/08/30 01:34:20;;;;;;;20.17;8.93;;;;;;;16.19;82.84;102151.63;5074092;28;20452;-39
2021/08/30 01:36:48;;;;;;;20.15;8.85;;;;;;;16.26;82.53;102151.72;5074345;28;20056;-40
2021/08/30 01:39:14;;;;;;;18.85;9.75;;;;;;;16.26;82.61;102162.59;5074260;28;20038;-40
2021/08/30 01:41:39;;;;;;;19.67;9.95;;;;;;;16.28;82.57;102155.94;5073989;28;20384;-41
2021/08/30 01:44:06;;;;;;;17.92;10.27;;;;;;;16.26;82.39;102160.72;5056126;28;20028;-40
2021/08/30 01:46:32;;;;;;;17.15;10.00;;;;;;;16.33;82.15;102163.53;5056207;28;20399;-40
2021/08/30 01:48:58;;;;;;;22.23;10.45;;;;;;;16.35;82.00;102162.31;5056115;28;20041;-39
2021/08/30 01:51:25;;;;;;;18.70;10.00;;;;;;;16.33;81.97;102156.22;5055928;28;20060;-41
2021/08/30 01:53:53;;;;;;;20.88;10.93;;;;;;;16.32;82.21;102154.50;5055848;28;20074;-41
2021/08/30 01:56:19;;;;;;;;;;;;;;;16.31;81.86;102155.56;5056097;28;20451;-41
2021/08/30 02:01:32;;;;;;;18.90;9.60;;;;;;;16.27;82.00;102154.22;5057341;28;20051;-41
2021/08/30 02:03:57;;;;;;;18.40;10.43;;;;;;;16.28;81.66;102155.94;5055410;28;20028;-40
2021/08/30 02:06:23;;;;;;;18.33;9.85;;;;;;;16.27;81.65;102146.09;5073458;28;20091;-40
2021/08/30 02:08:48;;;;;;;22.25;11.52;;;;;;;16.24;81.65;102150.06;5055516;28;20036;-40
2021/08/30 02:11:14;;;;;;;21.25;11.02;;;;;;;16.20;81.51;102151.44;5055668;28;20043;-40
2021/08/30 02:13:40;;;;;;;19.67;11.02;;;;;;;16.20;81.73;102146.00;5073597;28;20067;-40
2021/08/30 02:16:06;;;;;;;21.27;10.65;;;;;;;16.22;81.57;102159.41;5073538;28;20037;-40
2021/08/30 02:18:37;;;;;;;22.15;11.05;;;;;;;16.26;81.59;102155.28;5073945;28;20029;-40
2021/08/30 02:21:43;;;;;;;18.27;10.88;;;;;;;16.30;81.32;102153.88;5073412;28;20525;-41
2021/08/30 02:24:23;;;;;;;18.75;10.52;;;;;;;16.26;81.59;102166.13;5073435;28;20039;-41
2021/08/30 02:26:56;;;;;;;19.20;11.55;;;;;;;16.31;81.44;102161.00;5073265;28;20115;-41
2021/08/30 02:29:27;;;;;;;22.92;11.52;;;;;;;16.31;81.31;102163.72;5055090;28;20127;-39
2021/08/30 02:31:57;;;;;;;25.92;12.13;;;;;;;16.27;81.46;102159.66;5055224;28;20111;-39
2021/08/30 02:34:23;;;;;;;25.17;11.43;;;;;;;16.29;81.44;102163.03;5072400;28;20048;-40
2021/08/30 02:36:50;;;;;;;21.23;11.45;;;;;;;16.30;81.44;102159.31;5054976;28;20029;-41
2021/08/30 02:39:17;;;;;;;18.60;11.23;;;;;;;16.26;81.64;102152.56;5055287;28;20032;-40
2021/08/30 02:41:44;;;;;;;20.25;11.07;;;;;;;16.26;81.72;102152.56;5072932;28;20127;-41
2021/08/30 02:44:09;;;;;;;20.02;10.75;;;;;;;16.22;81.72;102145.84;5054856;28;20431;-40
2021/08/30 02:46:35;;;;;;;17.58;10.27;;;;;;;16.21;81.49;102147.69;5054509;28;20108;-40
2021/08/30 02:49:01;;;;;;;18.90;10.55;;;;;;;16.25;81.50;102134.59;5072970;28;20056;-41
2021/08/30 02:51:27;;;;;;;23.45;11.13;;;;;;;16.28;81.03;102145.06;5054395;28;20043;-40
2021/08/30 02:53:53;;;;;;;21.92;10.40;;;;;;;16.30;80.67;102137.59;5054617;28;20025;-40
2021/08/30 02:56:19;;;;;;;17.73;9.57;;;;;;;16.27;80.87;102139.81;5054822;28;20068;-41
2021/08/30 02:58:44;;;;;;;21.38;9.82;;;;;;;16.29;80.70;102138.59;5054807;28;20067;-41
2021/08/30 03:01:10;;;;;;;18.38;10.38;;;;;;;16.26;80.74;102138.97;5071511;28;20107;-41
2021/08/30 03:03:35;;;;;;;23.90;10.82;;;;;;;16.21;80.77;102138.69;5054695;28;20024;-41
2021/08/30 03:06:00;;;;;;;21.02;9.80;;;;;;;16.20;80.65;102132.44;5054571;28;20111;-41
2021/08/30 03:08:26;;;;;;;23.02;9.68;;;;;;;16.20;80.83;102140.56;5072392;28;20029;-41
2021/08/30 03:10:52;;;;;;;16.23;10.05;;;;;;;16.21;80.80;102138.69;5042605;28;20135;-41
2021/08/30 03:13:17;;;;;;;22.67;10.07;;;;;;;16.20;80.55;102142.47;5050687;28;20040;-40
2021/08/30 03:15:44;;;;;;;22.10;10.30;;;;;;;16.22;80.77;102137.69;5054699;28;20021;-40
2021/08/30 03:18:12;;;;;;;14.18;8.60;;;;;;;16.24;80.71;102138.31;5052365;28;20028;-40
2021/08/30 03:20:37;;;;;;;20.15;9.57;;;;;;;16.21;80.66;102130.53;5054010;28;20040;-40
2021/08/30 03:23:03;;;;;;;19.98;9.85;;;;;;;16.23;80.81;102133.94;5054054;28;20032;-40
2021/08/30 03:25:33;;;;;;;23.88;9.80;;;;;;;16.21;80.40;102127.84;5054029;28;20031;-40
2021/08/30 03:27:59;;;;;;;20.38;9.63;;;;;;;16.21;79.82;102139.53;5071193;28;20085;-41
2021/08/30 03:30:25;;;;;;;18.08;8.90;;;;;;;16.26;79.58;102133.53;5054246;28;20532;-40
2021/08/30 03:32:51;;;;;;;16.23;9.10;;;;;;;16.27;79.35;102137.09;5054257;28;20029;-40
2021/08/30 03:35:17;;;;;;;17.75;9.23;;;;;;;16.31;79.18;102133.81;5072235;28;20036;-40
2021/08/30 03:37:43;;;;;;;16.80;9.48;;;;;;;16.29;79.00;102133.16;5053703;28;20029;-40
2021/08/30 03:40:10;;;;;;;18.52;10.07;;;;;;;16.21;79.34;102117.81;5071415;28;20028;-40
2021/08/30 03:42:38;;;;;;;17.00;9.60;;;;;;;16.08;80.00;102111.34;5053858;28;20040;-40
2021/08/30 03:45:04;;;;;;;17.77;10.25;;;;;;;15.93;80.12;102108.63;5072705;28;20036;-40
2021/08/30 03:47:30;;;;;;;18.05;9.85;;;;;;;15.84;80.45;102105.16;5071839;28;20472;-40
2021/08/30 03:49:56;;;;;;;14.30;9.80;;;;;;;15.79;80.61;102105.72;5053958;28;20039;-40
2021/08/30 03:52:23;;;;;;;20.98;10.82;;;;;;;15.72;80.98;102106.66;5071477;28;20037;-41
2021/08/30 03:54:48;;;;;;;22.27;10.30;;;;;;;15.71;80.78;102108.50;5053294;28;20452;-40
2021/08/30 03:57:14;;;;;;;19.85;10.73;;;;;;;15.65;81.04;102106.50;5071257;28;20051;-40
2021/08/30 03:59:45;;;;;;;13.70;9.25;;;;;;;15.66;81.09;102110.06;5052807;28;20112;-40
2021/08/30 04:02:12;;;;;;;20.20;11.15;;;;;;;15.57;81.10;102101.16;5063913;28;20041;-41
2021/08/30 04:04:39;;;;;;;22.33;12.07;;;;;;;15.50;81.53;102105.63;5053373;28;20043;-40
2021/08/30 04:07:05;;;;;;;22.42;11.63;;;;;;;15.45;81.72;102106.19;5053666;28;20024;-39
2021/08/30 04:09:30;;;;;;;22.73;11.80;;;;;;;15.47;81.79;102108.72;5053473;28;20039;-40
2021/08/30 04:11:56;;;;;;;21.77;11.25;;;;;;;15.42;81.86;102114.69;5053874;28;20031;-40
2021/08/30 04:14:22;;;;;;;23.58;11.13;;;;;;;15.39;82.34;102112.34;5071339;28;20107;-40
2021/08/30 04:16:47;;;;;;;22.48;10.68;;;;;;;15.36;82.34;102112.72;5053359;28;20471;-39
2021/08/30 04:19:13;;;;;;;23.13;11.07;;;;;;;15.40;82.13;102119.44;5071727;28;20035;-40
2021/08/30 04:21:39;;;;;;;16.27;10.10;;;;;;;15.39;82.03;102115.06;5070841;28;20024;-40
2021/08/30 04:24:04;;;;;;;28.15;11.93;;;;;;;15.34;82.30;102115.59;5071845;28;20120;-41
2021/08/30 04:26:30;;;;;;;19.25;9.88;;;;;;;15.37;82.18;102114.41;5071544;28;20037;-41
2021/08/30 04:28:55;;;;;;;20.95;10.60;;;;;;;15.34;82.33;102118.31;5067372;28;20056;-41
2021/08/30 04:31:20;;;;;;;21.05;10.20;;;;;;;15.35;82.25;102111.03;5066627;28;20079;-40
2021/08/30 04:33:46;;;;;;;23.15;11.60;;;;;;;15.29;82.49;102114.47;5071337;28;20032;-41
2021/08/30 04:36:11;;;;;;;19.63;10.73;;;;;;;15.25;82.85;102111.28;5070988;28;20488;-40
2021/08/30 04:38:36;;;;;;;22.52;11.52;;;;;;;15.26;82.84;102109.41;5062765;28;20032;-40
2021/08/30 04:41:02;;;;;;;21.20;11.30;;;;;;;15.25;82.75;102108.56;5070733;28;20085;-40
2021/08/30 04:43:27;;;;;;;19.33;11.23;;;;;;;15.23;83.16;102107.91;5071252;28;20115;-39
2021/08/30 04:45:53;;;;;;;22.60;11.50;;;;;;;15.30;82.97;102114.28;5071349;28;20032;-41
2021/08/30 04:48:18;;;;;;;22.55;11.32;;;;;;;15.36;82.96;102118.16;5071361;28;20028;-39
2021/08/30 04:50:43;;;;;;;19.75;11.80;;;;;;;15.31;83.07;102115.13;5073143;28;20032;-40
2021/08/30 04:53:09;;;;;;;26.15;10.98;;;;;;;15.33;82.82;102115.81;5074453;28;20382;-41
2021/08/30 04:55:35;;;;;;;18.52;10.93;;;;;;;15.36;82.88;102110.00;5074872;28;20036;-40
2021/08/30 04:58:02;;;;;;;19.95;11.13;;;;;;;15.33;83.17;102110.38;5074980;28;20029;-40
2021/08/30 05:00:27;;;;;;;20.23;10.63;;;;;;;15.40;83.09;102113.19;5071568;28;20037;-40
2021/08/30 05:02:52;;;;;;;24.05;12.00;;;;;;;15.39;83.10;102112.34;5071353;28;20052;-40
2021/08/30 05:05:18;;;;;;;21.08;11.27;;;;;;;15.46;82.88;102118.75;5074159;28;20025;-40
2021/08/30 05:07:43;;;;;;;21.40;12.82;;;;;;;15.49;82.68;102123.78;5074823;28;20033;-41
2021/08/30 05:10:09;;;;;;;18.92;11.52;;;;;;;15.53;82.87;102122.41;5074424;28;20032;-41
2021/08/30 05:12:34;;;;;;;16.83;10.90;;;;;;;15.58;82.85;102130.81;5074781;28;20059;-43
2021/08/30 05:14:59;;;;;;;21.42;10.88;;;;;;;15.62;83.14;102125.06;5070335;28;20376;-40
2021/08/30 05:17:25;;;;;;;19.52;11.10;;;;;;;15.65;83.23;102132.81;5073882;28;20021;-43
2021/08/30 05:19:50;;;;;;;24.05;12.23;;;;;;;15.67;83.32;102137.03;5074795;28;20365;-43
2021/08/30 05:22:15;;;;;;;25.48;11.93;;;;;;;15.67;83.71;102139.75;5074236;28;20028;-42
2021/08/30 05:24:44;;;;;;;25.95;12.30;;;;;;;15.75;83.57;102144.28;5074407;28;20020;-45
2021/08/30 05:27:09;;;;;;;22.67;11.60;;;;;;;15.82;83.52;102139.78;5074554;28;20024;-42
2021/08/30 05:29:35;;;;;;;20.15;10.90;;;;;;;15.90;83.41;102142.41;5073961;28;20106;-46
2021/08/30 05:32:00;;;;;;;31.92;12.25;;;;;;;15.92;83.29;102148.50;5048611;28;20076;-40
2021/08/30 05:34:25;;;;;;;18.08;10.93;;;;;;;16.03;83.42;102149.91;5058283;28;20044;-41
2021/08/30 05:36:51;;;;;;;26.35;11.45;;;;;;;16.17;82.99;102156.41;5060755;28;20024;-40
2021/08/30 05:39:16;;;;;;;24.73;12.02;;;;;;;16.19;82.93;102157.91;5071286;28;20111;-41
2021/08/30 05:41:41;;;;;;;24.25;11.63;;;;;;;16.24;82.91;102151.91;5070337;28;20353;-40
2021/08/30 05:44:08;;;;;;;22.42;11.43;;;;;;;16.33;82.70;102153.50;5069638;28;20036;-41
2021/08/30 05:46:33;;;;;;;19.52;10.55;;;;;;;16.38;82.47;102161.94;5061062;28;20499;-41
2021/08/30 05:48:58;;;;;;;20.95;10.55;;;;;;;16.48;82.38;102164.34;5061682;28;20032;-41
2021/08/30 05:51:24;;;;;;;24.98;11.73;;;;;;;16.50;82.21;102158.72;5071071;28;20060;-41
2021/08/30 05:53:49;;;;;;;19.33;10.73;;;;;;;16.60;82.04;102159.28;5072559;28;20017;-41
2021/08/30 05:56:14;;;;;;;22.83;10.80;;;;;;;16.62;82.01;102168.09;5065413;28;20021;-42
2021/08/30 05:58:40;;;;;;;23.88;11.57;;;;;;;16.64;82.07;102168.72;5069445;28;20024;-41
2021/08/30 06:01:06;;;;;;;22.13;11.10;;;;;;;16.64;82.08;102166.00;5046861;28;20031;-41
2021/08/30 06:03:31;;;;;;;17.52;10.45;;;;;;;16.71;81.61;102172.38;5048664;28;20035;-39
2021/08/30 06:05:57;;;;;;;18.88;12.07;;;;;;;16.79;81.37;102168.75;5053420;28;20037;-40
2021/08/30 06:08:22;;;;;;;24.00;11.10;;;;;;;16.80;81.19;102171.28;5065007;28;20099;-38
2021/08/30 06:10:48;;;;;;;18.65;10.68;;;;;;;16.77;81.33;102170.78;5055158;28;20059;-42
2021/08/30 06:13:14;;;;;;;23.48;11.45;;;;;;;16.79;81.13;102171.47;5070759;28;20094;-37
2021/08/30 06:15:39;;;;;;;19.38;9.75;;;;;;;16.85;80.89;102177.00;5071595;28;20036;-40
2021/08/30 06:18:04;;;;;;;17.95;10.10;;;;;;;16.84;81.00;102172.56;5069442;28;20103;-39
2021/08/30 06:20:30;;;;;;;22.35;10.73;;;;;;;16.92;80.70;102181.66;5070141;28;20082;-39
2021/08/30 06:22:55;;;;;;;22.65;10.00;;;;;;;16.98;80.59;102183.59;5062873;28;20460;-45
2021/08/30 06:25:21;;;;;;;16.00;9.70;;;;;;;16.97;80.31;102181.94;5070003;28;20035;-40
2021/08/30 06:27:46;;;;;;;21.00;10.82;;;;;;;16.94;80.29;102172.28;5063679;28;20039;-40
2021/08/30 06:30:11;;;;;;;21.92;10.50;;;;;;;17.01;79.99;102183.22;5062855;28;20093;-42
2021/08/30 06:32:37;;;;;;;19.23;9.60;;;;;;;17.00;79.92;102181.53;5058334;28;20044;-42
2021/08/30 06:35:03;;;;;;;20.75;10.25;;;;;;;17.05;79.60;102182.66;5068413;28;20518;-43
2021/08/30 06:37:28;;;;;;;20.55;9.50;;;;;;;17.05;79.54;102174.50;5062017;28;20071;-41
2021/08/30 06:39:53;;;;;;;20.67;10.35;;;;;;;17.06;79.75;102176.19;5057783;28;20443;-40
2021/08/30 06:42:19;;;;;;;20.95;9.98;;;;;;;17.12;79.14;102166.41;5062552;28;20078;-41
2021/08/30 06:44:44;;;;;;;19.48;9.88;;;;;;;17.12;79.06;102171.84;5071347;28;20028;-39
2021/08/30 06:47:10;;;;;;;23.90;9.73;;;;;;;17.15;78.74;102174.19;5064716;28;20021;-40
2021/08/30 06:49:35;;;;;;;20.00;9.55;;;;;;;17.10;78.94;102171.19;5068954;28;20021;-39
2021/08/30 06:52:00;;;;;;;17.75;9.13;;;;;;;17.13;79.01;102186.28;5064325;28;20059;-39
2021/08/30 06:54:26;;;;;;;17.00;9.57;;;;;;;17.08;79.12;102179.53;5065549;28;20071;-39
2021/08/30 06:56:51;;;;;;;16.65;9.70;;;;;;;17.00;79.65;102176.09;5063463;28;20024;-41
2021/08/30 06:59:16;;;;;;;22.60;10.57;;;;;;;17.01;79.71;102177.78;5035544;28;20033;-40
2021/08/30 07:01:42;;;;;;;19.05;9.57;;;;;;;17.00;80.00;102187.81;5035543;28;20051;-40
2021/08/30 07:04:07;;;;;;;19.52;9.23;;;;;;;16.98;79.82;102184.47;5052055;28;20098;-41
2021/08/30 07:06:33;;;;;;;23.05;8.98;;;;;;;17.02;80.14;102190.34;5042303;28;20061;-42
2021/08/30 07:09:02;;;;;;;22.10;9.73;;;;;;;16.96;80.25;102177.53;5065616;28;20037;-41
2021/08/30 07:11:31;;;;;;;30.77;9.90;;;;;;;17.03;80.07;102186.59;5059363;28;20021;-40
2021/08/30 07:13:57;;;;;;;21.23;9.25;;;;;;;17.04;80.16;102182.84;5060837;28;20071;-40
2021/08/30 07:16:22;;;;;;;23.40;9.60;;;;;;;17.02;80.24;102184.91;5039745;28;20028;-40
2021/08/30 07:18:47;;;;;;;20.30;9.90;;;;;;;17.08;80.07;102184.97;5065272;28;20016;-39
2021/08/30 07:21:13;;;;;;;25.48;10.23;;;;;;;17.01;80.48;102181.38;5060935;28;20066;-39
2021/08/30 07:23:38;;;;;;;22.85;9.93;;;;;;;17.08;80.30;102186.84;5063152;28;20090;-40
2021/08/30 07:26:04;;;;;;;20.00;9.63;;;;;;;17.04;80.41;102191.84;5061074;28;20032;-43
2021/08/30 07:28:29;;;;;;;20.00;10.32;;;;;;;17.00;80.89;102186.97;5063028;28;20037;-39
2021/08/30 07:32:37;;;;;;;27.05;10.40;;;;;;;17.02;81.10;102196.63;5105213;27;20704;-40
2021/08/30 07:35:03;;;;;;;24.25;8.85;;;;;;;17.03;80.67;102197.47;5079823;28;20066;-44
2021/08/30 07:37:29;;;;;;;17.95;9.65;;;;;;;17.00;80.74;102197.88;5085068;28;20063;-45
2021/08/30 07:39:54;;;;;;;17.20;8.82;;;;;;;17.06;80.55;102205.25;5101702;28;20480;-45
2021/08/30 07:42:19;;;;;;;22.20;9.82;;;;;;;17.07;80.16;102198.78;5094406;28;20510;-46
2021/08/30 07:44:45;;;;;;;17.55;9.25;;;;;;;17.11;80.07;102209.09;5094874;28;20028;-42
2021/08/30 07:47:10;;;;;;;22.98;9.75;;;;;;;17.18;80.02;102206.44;5096668;28;20035;-40
2021/08/30 07:49:35;;;;;;;20.70;9.35;;;;;;;17.17;80.10;102193.00;5099265;28;20028;-42
2021/08/30 07:52:02;;;;;;;22.55;10.50;;;;;;;17.14;79.89;102199.72;5081803;28;20032;-41
2021/08/30 07:54:27;;;;;;;22.63;9.65;;;;;;;17.22;79.49;102202.31;5078064;28;20040;-42
2021/08/30 07:56:52;;;;;;;15.35;9.23;;;;;;;17.22;79.50;102207.75;5086634;28;20031;-43
2021/08/30 07:59:18;;;;;;;19.98;9.45;;;;;;;17.22;79.49;102205.03;5087254;28;20021;-38
2021/08/30 08:01:44;;;;;;;20.48;9.35;;;;;;;17.26;79.07;102209.03;5074954;28;20053;-42
2021/08/30 08:04:09;;;;;;;19.35;8.57;;;;;;;17.31;78.81;102214.75;5075668;28;20051;-42
2021/08/30 08:06:34;;;;;;;19.05;9.68;;;;;;;17.30;78.87;102210.34;5072917;28;20024;-45
2021/08/30 08:09:00;;;;;;;17.00;9.10;;;;;;;17.34;78.82;102225.22;5079662;28;20044;-42
2021/08/30 08:11:26;;;;;;;16.58;9.30;;;;;;;17.31;78.95;102222.91;5088464;28;20054;-42
2021/08/30 08:13:51;;;;;;;21.13;9.30;;;;;;;17.34;78.82;102221.69;5079623;28;20112;-40
2021/08/30 08:16:16;;;;;;;23.08;8.90;;;;;;;17.41;78.47;102219.03;5080013;28;20089;-42
2021/08/30 08:18:42;;;;;;;24.67;9.80;;;;;;;17.46;78.50;102216.59;5082270;28;20031;-42
2021/08/30 08:21:08;;;;;;;23.90;10.27;;;;;;;17.47;78.40;102216.38;5077380;28;20101;-41
2021/08/30 08:23:34;;;;;;;18.98;8.88;;;;;;;17.58;78.41;102222.34;5068334;28;20139;-41
2021/08/30 08:25:59;;;;;;;25.52;9.30;;;;;;;17.56;78.32;102225.25;5080408;28;20515;-41
2021/08/30 08:28:25;;;;;;;22.17;9.70;;;;;;;17.65;77.95;102226.81;5066556;28;20037;-41
2021/08/30 08:30:51;;;;;;;20.13;8.27;;;;;;;17.71;77.77;102219.75;5067338;28;20056;-41
2021/08/30 08:33:16;;;;;;;25.90;8.80;;;;;;;17.76;77.92;102226.28;5067565;28;20104;-42
2021/08/30 08:35:42;;;;;;;23.17;8.68;;;;;;;17.84;77.82;102222.59;5067231;28;20487;-42
2021/08/30 08:38:09;;;;;;;19.90;8.25;;;;;;;17.89;77.88;102219.31;5068257;28;20025;-41
2021/08/30 08:40:34;;;;;;;24.77;8.80;;;;;;;17.93;77.56;102226.03;5067800;28;20086;-40
2021/08/30 08:43:00;;;;;;;22.13;9.00;;;;;;;18.03;77.34;102231.97;5059664;28;20021;-40
2021/08/30 08:45:25;;;;;;;21.15;7.97;;;;;;;18.02;77.20;102224.84;5050498;28;20025;-39
2021/08/30 08:47:51;;;;;;;22.17;7.85;;;;;;;18.10;77.10;102221.97;5054771;28;20029;-42
2021/08/30 08:50:19;;;;;;;24.75;7.72;;;;;;;18.10;77.23;102226.59;5054166;28;20053;-42
2021/08/30 08:52:45;;;;;;;23.13;7.95;;;;;;;18.02;77.71;102222.13;5036819;28;20021;-43
2021/08/30 08:55:11;;;;;;;20.27;7.57;;;;;;;18.13;77.50;102227.03;5054622;28;20063;-42
2021/08/30 08:57:37;;;;;;;27.33;8.80;;;;;;;18.06;78.07;102225.28;5052715;28;20025;-42
2021/08/30 09:00:08;;;;;;;20.27;8.02;;;;;;;18.12;77.83;102214.44;5053329;28;20052;-41
2021/08/30 09:02:34;;;;;;;28.35;8.05;;;;;;;18.17;77.80;102222.88;5053420;28;20108;-42
2021/08/30 09:05:01;;;;;;;22.17;7.50;;;;;;;18.20;77.92;102222.47;5051862;28;20488;-42
2021/08/30 09:07:42;;;;;;;24.88;8.45;;;;;;;18.20;78.21;102219.75;5048411;28;20041;-41
2021/08/30 09:10:13;;;;;;;26.35;7.57;;;;;;;18.29;77.61;102216.88;5052653;28;20090;-41
2021/08/30 09:12:41;;;;;;;19.98;7.40;;;;;;;18.40;78.00;102216.28;5053444;28;20029;-42
2021/08/30 09:15:12;;;;;;;24.88;8.27;;;;;;;18.51;77.16;102217.63;5053551;28;20381;-42
2021/08/30 09:17:40;;;;;;;18.23;7.78;;;;;;;18.71;76.05;102220.47;5052675;28;20404;-42
2021/08/30 09:20:05;;;;;;;;;;;;;;;18.75;76.29;102219.06;5053832;28;20037;-41
2021/08/30 09:22:33;;;;;;;25.42;7.65;;;;;;;18.77;76.11;102216.94;5053921;28;19919;-41
2021/08/30 09:25:07;;;;;;;21.00;8.18;;;;;;;19.03;75.16;102219.78;5053282;28;20082;-41
2021/08/30 09:27:47;;;;;;;22.20;7.95;;;;;;;19.07;75.64;102218.34;5053469;28;20059;-41
2021/08/30 09:30:13;;;;;;;20.45;8.02;;;;;;;19.12;74.36;102227.81;5047953;28;20446;-42
2021/08/30 09:32:46;;;;;;;25.45;8.80;;;;;;;19.17;73.08;102219.81;5052798;28;20035;-45
2021/08/30 09:35:12;;;;;;;26.55;7.88;;;;;;;19.04;73.36;102217.91;5055812;28;20123;-40
2021/08/30 09:37:40;;;;;;;17.73;7.50;;;;;;;19.02;73.81;102231.75;5053617;28;20112;-40
2021/08/30 09:40:13;;;;;;;21.88;6.90;;;;;;;18.99;73.68;102232.16;5053488;28;20029;-39
2021/08/30 09:42:54;;;;;;;14.48;7.22;;;;;;;19.03;74.09;102221.66;5053305;28;20183;-40
2021/08/30 09:45:21;;;;;;;21.58;7.63;;;;;;;19.10;74.13;102225.28;5049809;28;20044;-41
2021/08/30 09:47:58;;;;;;;27.52;7.88;;;;;;;19.22;73.41;102222.78;5053324;28;20037;-40
2021/08/30 09:50:33;;;;;;;22.65;7.60;;;;;;;19.34;73.82;102225.75;5052935;28;20029;-41
2021/08/30 09:53:00;;;;;;;22.55;7.28;;;;;;;19.42;73.48;102226.41;5068431;28;20073;-43
2021/08/30 09:55:26;;;;;;;19.95;7.80;;;;;;;19.72;73.27;102231.50;5052361;28;20039;-43
2021/08/30 09:57:52;;;;;;;25.88;8.35;;;;;;;19.85;71.79;102220.59;5050986;28;20030;-41
2021/08/30 10:00:19;;;;;;;21.38;7.72;;;;;;;19.93;71.10;102217.66;5037887;28;20025;-40
2021/08/30 10:02:50;;;;;;;17.15;7.88;;;;;;;19.91;70.41;102230.69;5052061;28;20459;-40
2021/08/30 10:05:16;;;;;;;16.45;7.60;;;;;;;19.84;70.24;102218.91;5052171;28;20052;-40
2021/08/30 10:07:44;;;;;;;19.27;7.38;;;;;;;19.73;71.02;102216.81;5047393;28;20036;-40
2021/08/30 10:10:10;;;;;;;23.02;8.80;;;;;;;19.62;72.07;102220.13;5049007;28;20480;-40
2021/08/30 10:12:35;;;;;;;20.63;8.10;;;;;;;19.52;71.92;102220.53;5050582;28;20056;-40
2021/08/30 10:15:01;;;;;;;15.63;7.50;;;;;;;19.39;72.71;102221.34;5051287;28;20372;-39
2021/08/30 10:17:27;;;;;;;22.95;7.82;;;;;;;19.36;73.02;102221.78;5050057;28;20052;-40
2021/08/30 10:19:57;;;;;;;24.35;7.50;;;;;;;19.48;72.89;102224.72;5047106;28;20047;-39
2021/08/30 10:22:23;;;;;;;16.70;6.55;;;;;;;19.50;72.75;102218.00;5052217;28;20104;-39
2021/08/30 10:24:49;;;;;;;21.05;7.50;;;;;;;19.62;72.01;102231.06;5051619;28;20116;-39
2021/08/30 10:27:15;;;;;;;18.75;6.90;;;;;;;19.62;71.94;102228.34;5052718;28;20504;-39
2021/08/30 10:29:42;;;;;;;19.85;6.80;;;;;;;19.63;72.23;102227.28;5051509;28;20033;-40
2021/08/30 10:32:20;;;;;;;16.30;5.90;;;;;;;19.59;72.20;102234.19;5051703;28;20568;-40
2021/08/30 10:34:46;;;;;;;21.95;6.50;;;;;;;19.47;72.78;102229.34;5052141;28;20025;-40
2021/08/30 10:37:18;;;;;;;19.35;6.93;;;;;;;19.38;72.90;102235.19;5052412;28;20025;-40
2021/08/30 10:39:46;;;;;;;23.63;7.15;;;;;;;19.18;73.59;102232.44;5051391;28;20033;-39
2021/08/30 10:42:12;;;;;;;18.45;6.35;;;;;;;19.15;73.29;102224.66;5052294;28;20040;-39
2021/08/30 10:44:55;;;;;;;21.50;7.35;;;;;;;19.17;73.79;102228.88;5052535;28;20047;-39
2021/08/30 10:47:25;;;;;;;16.00;6.95;;;;;;;19.22;73.41;102241.88;5052379;28;20106;-39
2021/08/30 10:49:52;;;;;;;22.98;7.22;;;;;;;19.23;73.16;102238.13;5052589;28;20031;-38
2021/08/30 10:52:18;;;;;;;18.35;6.38;;;;;;;19.37;72.53;102239.00;5052531;28;20021;-39
2021/08/30 10:54:55;;;;;;;18.67;6.68;;;;;;;19.66;71.87;102235.03;5052357;28;20427;-39
2021/08/30 10:57:40;;;;;;;19.25;6.30;;;;;;;19.66;71.26;102237.78;5052293;28;20064;-39
2021/08/30 11:00:10;;;;;;;18.30;6.57;;;;;;;19.66;71.68;102226.84;5051715;28;20070;-39
2021/08/30 11:02:47;;;;;;;29.73;7.47;;;;;;;19.72;70.96;102234.22;5052092;28;20028;-39
2021/08/30 11:05:12;;;;;;;20.75;7.28;;;;;;;19.74;70.93;102240.34;5051006;28;20064;-40
2021/08/30 11:07:38;;;;;;;23.63;7.70;;;;;;;19.68;71.14;102231.09;5052316;28;20061;-40
2021/08/30 11:10:07;;;;;;;17.17;7.47;;;;;;;19.72;70.59;102231.50;5052110;28;20492;-40
2021/08/30 11:12:33;;;;;;;16.73;6.68;;;;;;;19.66;71.31;102244.09;5052070;28;20074;-38
2021/08/30 11:14:59;;;;;;;13.32;5.70;;;;;;;19.76;71.49;102235.50;5050691;28;20037;-39
2021/08/30 11:17:28;;;;;;;16.88;6.68;;;;;;;19.82;71.36;102236.56;5051656;28;20444;-38
2021/08/30 11:19:54;;;;;;;21.80;6.25;;;;;;;19.78;71.59;102230.69;5052138;28;20029;-39